createdAt,value
2022-11-08T00:00:16.640Z,9
2022-11-08T00:05:24.557Z,9
2022-11-08T00:10:32.545Z,9
2022-11-08T00:15:40.469Z,8.9
2022-11-08T00:20:48.423Z,8.9
2022-11-08T00:25:56.377Z,8.9
2022-11-08T00:31:04.342Z,8.9
2022-11-08T00:41:20.223Z,8.9
2022-11-08T00:46:28.199Z,8.9
2022-11-08T00:56:44.075Z,8.8
2022-11-08T01:01:52.344Z,8.8
2022-11-08T01:06:59.986Z,8.8
2022-11-08T01:17:16.001Z,8.8
2022-11-08T01:27:31.781Z,8.7
2022-11-08T01:32:38.005Z,8.7
2022-11-08T01:37:45.918Z,8.8
2022-11-08T01:42:52.096Z,8.8
2022-11-08T01:48:00.071Z,8.8
2022-11-08T01:53:06.200Z,8.8
2022-11-08T01:58:14.264Z,8.8
2022-11-08T02:03:22.121Z,8.8
2022-11-08T02:08:28.262Z,8.8
2022-11-08T02:13:34.448Z,8.8
2022-11-08T02:18:42.441Z,8.7
2022-11-08T02:23:48.558Z,8.7
2022-11-08T02:28:56.534Z,8.7
2022-11-08T02:44:18.612Z,8.7
2022-11-08T02:49:26.550Z,8.7
2022-11-08T02:54:34.502Z,8.7
2022-11-08T02:59:40.699Z,8.7
2022-11-08T03:04:48.627Z,8.7
2022-11-08T03:09:56.574Z,8.6
2022-11-08T03:15:02.790Z,8.6
2022-11-08T03:25:18.637Z,8.6
2022-11-08T03:30:26.637Z,8.5
2022-11-08T03:35:34.551Z,8.5
2022-11-08T03:40:40.703Z,8.5
2022-11-08T03:45:48.702Z,8.5
2022-11-08T03:50:56.614Z,8.5
2022-11-08T04:01:10.817Z,8.4
2022-11-08T04:06:18.703Z,8.4
2022-11-08T04:11:26.650Z,8.4
2022-11-08T04:16:34.718Z,8.4
2022-11-08T04:21:42.544Z,8.4
2022-11-08T04:26:50.491Z,8.4
2022-11-08T04:31:58.493Z,8.4
2022-11-08T04:37:04.644Z,8.3
2022-11-08T04:42:12.572Z,8.3
2022-11-08T04:47:20.541Z,8.3
2022-11-08T04:52:28.479Z,8.3
2022-11-08T04:57:36.423Z,8.3
2022-11-08T05:02:44.472Z,8.3
2022-11-08T05:07:52.348Z,8.2
2022-11-08T05:13:00.275Z,8.2
2022-11-08T05:23:16.221Z,8.2
2022-11-08T05:28:24.142Z,8.2
2022-11-08T05:33:32.100Z,8.2
2022-11-08T05:38:40.061Z,8.2
2022-11-08T05:43:47.982Z,8.1
2022-11-08T05:48:55.948Z,8.1
2022-11-08T05:54:03.927Z,8.1
2022-11-08T05:59:11.854Z,8.1
2022-11-08T06:04:19.789Z,8.1
2022-11-08T06:09:27.770Z,8.1
2022-11-08T06:14:35.708Z,8
2022-11-08T06:19:43.667Z,8
2022-11-08T06:24:51.642Z,8
2022-11-08T06:29:59.560Z,8
2022-11-08T06:35:07.542Z,8
2022-11-08T06:45:23.478Z,8
2022-11-08T06:50:31.379Z,7.9
2022-11-08T06:55:39.345Z,7.9
2022-11-08T07:11:03.284Z,7.9
2022-11-08T07:16:11.160Z,7.9
2022-11-08T07:21:17.350Z,7.9
2022-11-08T07:26:25.306Z,7.9
2022-11-08T07:31:33.238Z,7.8
2022-11-08T07:36:39.400Z,7.8
2022-11-08T07:46:55.342Z,7.8
2022-11-08T07:52:01.476Z,7.8
2022-11-08T07:57:09.427Z,7.8
2022-11-08T08:07:25.363Z,7.8
2022-11-08T08:12:33.297Z,7.8
2022-11-08T08:17:41.255Z,7.8
2022-11-08T08:38:13.097Z,7.8
2022-11-08T08:43:21.400Z,7.8
2022-11-08T08:48:27.212Z,7.8
2022-11-08T08:53:35.171Z,7.8
2022-11-08T08:58:43.364Z,7.8
2022-11-08T09:14:05.204Z,7.8
2022-11-08T09:19:13.113Z,7.8
2022-11-08T09:24:19.320Z,7.8
2022-11-08T09:29:25.482Z,7.8
2022-11-08T09:34:33.425Z,7.8
2022-11-08T09:44:49.371Z,7.9
2022-11-08T09:55:05.218Z,7.9
2022-11-08T10:05:19.380Z,7.9
2022-11-08T10:10:25.518Z,7.9
2022-11-08T10:20:39.678Z,8
2022-11-08T10:25:45.810Z,8
2022-11-08T10:30:53.791Z,8
2022-11-08T10:36:02.787Z,8
2022-11-08T10:41:07.883Z,8
2022-11-08T10:46:15.862Z,8
2022-11-08T10:56:32.970Z,8
2022-11-08T11:01:38.638Z,8
2022-11-08T11:17:00.053Z,8
2022-11-08T11:22:07.964Z,8
2022-11-08T11:27:14.140Z,8
2022-11-08T11:32:22.196Z,8
2022-11-08T11:37:28.252Z,8
2022-11-08T11:47:44.249Z,8
2022-11-08T11:57:58.314Z,8.1
2022-11-08T12:03:06.256Z,8.1
2022-11-08T12:08:12.418Z,8.1
2022-11-08T12:18:42.116Z,8.1
2022-11-08T12:23:34.477Z,8.2
2022-11-08T12:33:55.235Z,8.2
2022-11-08T12:38:58.329Z,8.2
2022-11-08T12:44:06.313Z,8.2
2022-11-08T12:49:12.485Z,8.3
2022-11-08T12:54:18.636Z,8.2
2022-11-08T13:04:34.833Z,8.3
2022-11-08T13:09:40.705Z,8.3
2022-11-08T13:14:46.893Z,8.3
2022-11-08T13:19:53.083Z,8.3
2022-11-08T13:25:01.006Z,8.3
2022-11-08T13:30:09.012Z,8.3
2022-11-08T13:35:15.255Z,8.3
2022-11-08T13:40:21.342Z,8.4
2022-11-08T13:45:29.250Z,8.4
2022-11-08T13:55:43.400Z,8.4
2022-11-08T14:00:49.584Z,8.4
2022-11-08T14:05:57.499Z,8.4
2022-11-08T14:11:05.498Z,8.4
2022-11-08T14:16:13.400Z,8.4
2022-11-08T14:26:29.329Z,8.4
2022-11-08T14:36:45.462Z,8.4
2022-11-08T14:41:53.201Z,8.4
2022-11-08T14:47:01.119Z,8.4
2022-11-08T14:52:09.158Z,8.5
2022-11-08T15:02:25.025Z,8.5
2022-11-08T15:07:32.944Z,8.5
2022-11-08T15:12:39.103Z,8.5
2022-11-08T15:17:45.309Z,8.5
2022-11-08T15:22:56.528Z,8.5
2022-11-08T15:28:01.182Z,8.5
2022-11-08T15:33:09.180Z,8.5
2022-11-08T15:38:15.682Z,8.5
2022-11-08T15:43:21.475Z,8.5
2022-11-08T15:48:27.693Z,8.5
2022-11-08T15:53:33.822Z,8.5
2022-11-08T16:03:47.985Z,8.5
2022-11-08T16:08:55.912Z,8.5
2022-11-08T16:24:19.788Z,8.5
2022-11-08T16:29:27.697Z,8.5
2022-11-08T16:34:33.861Z,8.5
2022-11-08T16:39:40.123Z,8.5
2022-11-08T16:44:47.985Z,8.5
2022-11-08T16:49:55.945Z,8.5
2022-11-08T16:55:02.132Z,8.5
2022-11-08T17:00:10.066Z,8.5
2022-11-08T17:05:16.228Z,8.5
2022-11-08T17:15:30.381Z,8.4
2022-11-08T17:20:36.534Z,8.4
2022-11-08T17:25:44.653Z,8.4
2022-11-08T17:30:50.674Z,8.4
2022-11-08T17:35:58.610Z,8.4
2022-11-08T17:41:04.766Z,8.4
2022-11-08T17:46:11.061Z,8.4
2022-11-08T17:51:18.890Z,8.4
2022-11-08T17:56:25.059Z,8.4
2022-11-08T18:01:31.675Z,8.4
2022-11-08T18:06:37.523Z,8.4
2022-11-08T18:11:45.453Z,8.4
2022-11-08T18:16:53.337Z,8.4
2022-11-08T18:22:01.267Z,8.4
2022-11-08T18:27:09.229Z,8.4
2022-11-08T18:32:17.194Z,8.4
2022-11-08T18:37:25.132Z,8.4
2022-11-08T18:42:33.097Z,8.4
2022-11-08T18:47:41.046Z,8.4
2022-11-08T18:52:48.977Z,8.4
2022-11-08T18:57:56.931Z,8.4
2022-11-08T19:03:04.934Z,8.4
2022-11-08T19:08:12.851Z,8.4
2022-11-08T19:13:21.094Z,8.4
2022-11-08T19:18:28.794Z,8.4
2022-11-08T19:23:36.716Z,8.4
2022-11-08T19:28:44.643Z,8.4
2022-11-08T19:33:52.643Z,8.5
2022-11-08T19:39:00.588Z,8.5
2022-11-08T19:44:08.518Z,8.5
2022-11-08T19:49:16.474Z,8.5
2022-11-08T19:54:24.409Z,8.5
2022-11-08T19:59:32.368Z,8.5
2022-11-08T20:04:40.344Z,8.5
2022-11-08T20:09:48.268Z,8.5
2022-11-08T20:14:56.225Z,8.5
2022-11-08T20:20:04.322Z,8.5
2022-11-08T20:25:12.134Z,8.5
2022-11-08T20:30:20.077Z,8.5
2022-11-08T20:35:28.049Z,8.5
2022-11-08T20:40:35.983Z,8.5
2022-11-08T20:45:43.937Z,8.5
2022-11-08T20:50:51.932Z,8.5
2022-11-08T20:55:59.869Z,8.5
2022-11-08T21:01:07.829Z,8.5
2022-11-08T21:06:15.765Z,8.5
2022-11-08T21:11:23.706Z,8.5
2022-11-08T21:16:42.299Z,8.5
2022-11-08T21:21:39.643Z,8.6
2022-11-08T21:26:47.566Z,8.6
2022-11-08T21:31:55.521Z,8.6
2022-11-08T21:37:03.490Z,8.6
2022-11-08T21:42:11.424Z,8.6
2022-11-08T21:52:25.551Z,8.6
2022-11-08T21:57:33.470Z,8.6
2022-11-08T22:02:41.431Z,8.6
2022-11-08T22:07:47.633Z,8.6
2022-11-08T22:12:55.546Z,8.6
2022-11-08T22:18:26.457Z,8.6
2022-11-08T22:23:11.489Z,8.6
2022-11-08T22:28:19.686Z,8.6
2022-11-08T22:33:27.368Z,8.6
2022-11-08T22:43:43.269Z,8.6
2022-11-08T22:53:59.159Z,8.6
2022-11-08T22:59:05.342Z,8.6
2022-11-08T23:14:31.021Z,8.6
2022-11-08T23:19:33.581Z,8.6
2022-11-08T23:24:39.759Z,8.6
2022-11-08T23:29:47.733Z,8.6
2022-11-08T23:34:53.880Z,8.6
2022-11-08T23:40:00.052Z,8.6
2022-11-08T23:45:08.055Z,8.6
2022-11-08T23:50:14.187Z,8.7
2022-11-08T23:55:20.339Z,8.6
